Time;durP1;ratioP1;P1;durP2;ratioP2;P2;SDS_P1;SDS_P2;PMS_P1;PMS_P2;Temp;Humidity;BMP_temperature;BMP_pressure;BME280_temperature;BME280_humidity;BME280_pressure;Samples;Min_cycle;Max_cycle;Signal;HPM_P1;HPM_P2
2022/03/05 00:01:01;;;;;;;8.40;5.10;;;2.40;1.00;;;;;;4928596;29;20230;-86
2022/03/05 00:03:28;;;;;;;13.77;5.93;;;2.30;1.00;;;;;;4929701;29;20335;-84
2022/03/05 00:05:56;;;;;;;8.30;5.30;;;2.20;1.00;;;;;;4930403;29;20226;-86
2022/03/05 00:08:23;;;;;;;9.32;5.93;;;2.20;1.00;;;;;;4935455;29;20228;-85
2022/03/05 00:10:50;;;;;;;10.35;5.97;;;2.20;1.00;;;;;;4935683;29;20239;-86
2022/03/05 00:13:17;;;;;;;11.10;4.60;;;2.10;1.00;;;;;;4933845;29;20250;-87
2022/03/05 00:15:43;;;;;;;5.15;4.72;;;2.00;1.00;;;;;;4931824;29;20295;-85
2022/03/05 00:18:11;;;;;;;11.30;5.50;;;1.90;1.00;;;;;;4923741;29;20215;-86
2022/03/05 00:20:37;;;;;;;8.35;4.95;;;1.80;1.00;;;;;;4928014;29;20227;-86
2022/03/05 00:23:07;;;;;;;9.52;5.35;;;1.80;1.00;;;;;;4928755;29;20223;-87
2022/03/05 00:25:34;;;;;;;9.60;5.65;;;;;;;;;;4927378;29;20191;-85
2022/03/05 00:28:04;;;;;;;9.00;5.90;;;1.60;1.00;;;;;;4927535;29;20242;-89
2022/03/05 00:30:31;;;;;;;7.57;5.47;;;1.60;1.00;;;;;;4934615;29;20212;-87
2022/03/05 00:32:59;;;;;;;8.52;5.32;;;1.70;1.00;;;;;;4932394;29;20248;-89
2022/03/05 00:35:31;;;;;;;10.68;5.43;;;1.60;1.00;;;;;;4940714;28;20219;-88
2022/03/05 00:38:00;;;;;;;12.27;6.18;;;1.90;4.80;;;;;;4941402;28;20198;-89
2022/03/05 00:40:30;;;;;;;12.13;5.72;;;1.60;1.00;;;;;;4941304;28;20263;-87
2022/03/05 00:50:43;;;;;;;9.43;5.85;;;1.50;12.50;;;;;;4058460;27;20227;-84
2022/03/05 00:53:11;;;;;;;13.10;7.80;;;1.50;37.00;;;;;;4931574;29;20232;-84
2022/03/05 00:55:39;;;;;;;8.48;6.38;;;1.70;44.80;;;;;;4927861;29;20208;-83
2022/03/05 00:58:05;;;;;;;10.45;6.00;;;1.40;78.40;;;;;;4929547;29;20204;-83
2022/03/05 01:00:32;;;;;;;11.80;6.43;;;1.40;44.20;;;;;;4929777;29;20215;-83
2022/03/05 01:02:58;;;;;;;14.75;10.13;;;1.40;62.80;;;;;;4929323;29;20255;-83
2022/03/05 01:05:25;;;;;;;18.98;9.63;;;1.40;89.20;;;;;;4928914;29;20211;-84
2022/03/05 01:07:52;;;;;;;14.10;7.38;;;1.30;84.30;;;;;;4929926;29;20216;-86
2022/03/05 01:10:28;;;;;;;7.80;5.95;;;1.30;87.80;;;;;;4925091;29;20267;-87
2022/03/05 01:17:06;;;;;;;8.80;5.95;;;1.20;84.10;;;;;;4807841;29;20219;-85
2022/03/05 01:19:34;;;;;;;21.90;11.05;;;1.30;99.90;;;;;;4795280;29;20302;-85
2022/03/05 01:22:00;;;;;;;7.45;6.65;;;1.20;99.90;;;;;;4857205;29;20231;-85
2022/03/05 01:24:27;;;;;;;13.50;7.55;;;1.30;99.90;;;;;;4905824;29;20231;-84
2022/03/05 01:26:54;;;;;;;14.95;7.30;;;1.30;99.90;;;;;;4952948;29;20214;-84
2022/03/05 01:29:20;;;;;;;8.65;6.90;;;1.30;99.90;;;;;;4951562;29;20231;-83
2022/03/05 01:31:47;;;;;;;9.65;6.65;;;1.20;99.90;;;;;;4951872;29;20207;-84
2022/03/05 01:34:13;;;;;;;13.70;7.10;;;1.20;99.90;;;;;;4951781;29;20231;-84
2022/03/05 01:39:28;;;;;;;11.50;6.90;;;1.30;99.90;;;;;;4940820;29;20295;-84
2022/03/05 01:41:55;;;;;;;14.05;9.55;;;1.20;99.90;;;;;;4951449;29;20295;-85
2022/03/05 01:44:22;;;;;;;8.30;6.97;;;1.20;99.90;;;;;;4951274;29;20270;-84
2022/03/05 01:46:49;;;;;;;13.02;6.95;;;1.20;99.90;;;;;;4951021;29;20203;-83
2022/03/05 01:49:16;;;;;;;9.20;6.70;;;1.40;99.90;;;;;;4950470;29;20265;-84
2022/03/05 01:51:44;;;;;;;9.68;6.22;;;1.40;99.90;;;;;;4951701;29;20207;-83
2022/03/05 01:54:11;;;;;;;10.15;6.88;;;1.20;99.90;;;;;;4995992;23;20218;-85
2022/03/05 01:56:40;;;;;;;11.98;6.90;;;1.30;99.90;;;;;;4963017;28;20191;-84
2022/03/05 01:59:08;;;;;;;10.30;7.25;;;1.40;99.90;;;;;;4963188;28;20180;-83
2022/03/05 02:01:35;;;;;;;12.27;7.97;;;1.40;99.90;;;;;;4963398;28;20187;-84
2022/03/05 02:04:05;;;;;;;11.82;7.70;;;1.30;99.90;;;;;;4961548;28;20273;-85
2022/03/05 02:06:31;;;;;;;10.60;7.30;;;1.30;99.90;;;;;;4956037;29;20208;-85
2022/03/05 02:09:00;;;;;;;9.23;7.18;;;1.30;99.90;;;;;;4959577;29;20223;-85
2022/03/05 02:11:27;;;;;;;8.57;6.70;;;1.30;99.90;;;;;;4958959;29;20197;-85
2022/03/05 02:13:54;;;;;;;10.82;7.15;;;1.30;99.90;;;;;;4949978;29;20231;-85
2022/03/05 02:16:22;;;;;;;6.80;5.93;;;1.30;99.90;;;;;;4946693;29;20207;-85
2022/03/05 02:18:50;;;;;;;7.82;6.72;;;1.20;99.90;;;;;;4945740;29;20229;-85
2022/03/05 02:21:18;;;;;;;9.93;7.05;;;1.00;99.90;;;;;;4944051;29;20289;-86
2022/03/05 02:23:45;;;;;;;11.43;7.32;;;1.20;99.90;;;;;;4944977;29;20251;-85
2022/03/05 02:26:12;;;;;;;9.35;6.85;;;1.10;99.90;;;;;;4945103;29;20663;-85
2022/03/05 02:28:39;;;;;;;13.13;7.30;;;1.10;99.90;;;;;;4945482;29;20258;-85
2022/03/05 02:31:06;;;;;;;10.80;6.78;;;1.10;99.90;;;;;;4945872;29;20230;-86
2022/03/05 02:33:32;;;;;;;11.75;6.70;;;1.10;99.90;;;;;;4943040;29;20262;-85
2022/03/05 02:35:59;;;;;;;14.07;6.95;;;1.00;99.90;;;;;;4944186;29;20207;-85
2022/03/05 02:38:28;;;;;;;8.10;6.70;;;1.00;99.90;;;;;;4945139;29;20239;-86
2022/03/05 02:40:54;;;;;;;9.82;6.45;;;1.00;99.90;;;;;;4943254;29;20203;-85
2022/03/05 02:43:22;;;;;;;8.60;6.90;;;1.00;99.90;;;;;;4942813;29;20649;-85
2022/03/05 02:45:48;;;;;;;10.35;8.15;;;0.90;99.90;;;;;;4942877;29;20266;-86
2022/03/05 02:48:16;;;;;;;10.18;7.38;;;1.00;99.90;;;;;;4944028;29;20207;-86
2022/03/05 02:50:44;;;;;;;8.63;6.75;;;1.00;99.90;;;;;;4949649;29;20247;-85
2022/03/05 02:53:11;;;;;;;13.85;7.60;;;1.00;99.90;;;;;;4947607;29;20250;-84
2022/03/05 02:55:40;;;;;;;7.80;6.75;;;1.00;99.90;;;;;;4944444;29;20206;-85
2022/03/05 02:58:07;;;;;;;10.15;7.70;;;0.90;99.90;;;;;;4953820;29;20223;-85
2022/03/05 03:00:34;;;;;;;12.35;8.38;;;0.80;99.90;;;;;;4960268;29;20239;-83
2022/03/05 03:03:00;;;;;;;12.77;7.85;;;0.70;99.90;;;;;;4961040;29;20235;-85
2022/03/05 03:05:27;;;;;;;11.38;7.38;;;0.60;99.90;;;;;;4961795;28;20197;-83
2022/03/05 03:07:54;;;;;;;11.85;8.80;;;0.80;99.90;;;;;;4962071;28;20179;-81
2022/03/05 03:10:21;;;;;;;14.73;8.25;;;0.70;99.90;;;;;;4961824;28;20207;-84
2022/03/05 03:12:49;;;;;;;10.20;7.13;;;0.80;99.90;;;;;;4961263;28;20258;-85
2022/03/05 03:15:16;;;;;;;12.18;8.38;;;0.80;99.90;;;;;;4961634;28;20214;-84
2022/03/05 03:17:44;;;;;;;10.65;8.52;;;0.70;99.90;;;;;;4961897;28;20187;-83
2022/03/05 03:20:13;;;;;;;12.88;8.20;;;0.80;99.90;;;;;;4961903;28;20203;-84
2022/03/05 03:22:40;;;;;;;12.07;8.52;;;0.50;99.90;;;;;;4961690;28;20200;-83
2022/03/05 03:25:08;;;;;;;10.68;7.60;;;0.80;99.90;;;;;;4961575;28;20187;-83
2022/03/05 03:27:34;;;;;;;12.68;7.78;;;0.60;99.90;;;;;;4959269;29;20207;-84
2022/03/05 03:30:03;;;;;;;13.48;9.90;;;0.70;99.90;;;;;;4958648;29;20222;-84
2022/03/05 03:32:29;;;;;;;14.25;8.70;;;0.70;99.90;;;;;;4958613;29;20222;-85
2022/03/05 03:34:56;;;;;;;16.50;10.25;;;0.70;99.90;;;;;;4953665;29;20223;-84
2022/03/05 03:37:23;;;;;;;20.20;11.18;;;0.50;99.90;;;;;;4960928;28;20223;-83
2022/03/05 03:39:51;;;;;;;14.93;8.80;;;0.50;99.90;;;;;;4954266;29;20245;-85
2022/03/05 03:42:18;;;;;;;15.32;10.43;;;0.60;99.90;;;;;;4947834;29;20586;-85
2022/03/05 03:44:44;;;;;;;15.18;9.68;;;0.60;99.90;;;;;;4944449;29;20238;-85
2022/03/05 03:47:12;;;;;;;13.10;10.45;;;0.60;99.90;;;;;;4946095;29;20618;-85
2022/03/05 03:49:39;;;;;;;14.80;11.35;;;0.60;99.90;;;;;;4945781;29;20230;-85
2022/03/05 03:52:06;;;;;;;12.68;9.20;;;0.70;99.90;;;;;;4943095;29;20238;-85
2022/03/05 03:54:34;;;;;;;14.43;7.80;;;0.60;99.90;;;;;;4944067;29;20235;-85
2022/03/05 03:57:00;;;;;;;13.25;8.98;;;0.60;99.90;;;;;;4946872;29;20218;-84
2022/03/05 03:59:27;;;;;;;21.35;9.55;;;0.70;99.90;;;;;;4943325;29;20207;-85
2022/03/05 04:01:53;;;;;;;10.55;9.45;;;0.60;99.90;;;;;;4944017;29;20625;-85
2022/03/05 04:04:21;;;;;;;16.50;9.68;;;0.70;99.90;;;;;;4944420;29;20251;-85
2022/03/05 04:09:32;;;;;;;16.48;10.60;;;0.60;99.90;;;;;;4942662;29;20213;-85
2022/03/05 04:11:59;;;;;;;19.27;9.88;;;0.60;99.90;;;;;;4942403;29;20477;-85
2022/03/05 04:14:25;;;;;;;17.60;12.73;;;0.60;99.90;;;;;;4944429;29;20227;-85
2022/03/05 04:16:52;;;;;;;19.27;9.63;;;0.70;99.90;;;;;;4945427;29;20215;-84
2022/03/05 04:19:19;;;;;;;12.45;9.90;;;0.50;99.90;;;;;;4944278;29;20203;-85
2022/03/05 04:21:47;;;;;;;10.30;7.65;;;0.50;99.90;;;;;;4949166;29;20222;-85
2022/03/05 04:24:13;;;;;;;10.90;8.77;;;0.60;99.90;;;;;;4942394;29;20793;-85
2022/03/05 04:26:40;;;;;;;10.77;8.38;;;0.50;99.90;;;;;;4942070;29;20745;-85
2022/03/05 04:29:07;;;;;;;14.85;8.82;;;0.50;99.90;;;;;;4942328;29;20207;-86
2022/03/05 04:31:33;;;;;;;14.60;8.13;;;0.50;99.90;;;;;;4945404;29;20243;-85
2022/03/05 04:34:00;;;;;;;17.03;9.07;;;0.50;99.90;;;;;;4943152;29;20449;-85
2022/03/05 04:36:26;;;;;;;13.93;9.25;;;0.50;99.90;;;;;;4944987;29;20459;-85
2022/03/05 04:38:54;;;;;;;15.73;8.75;;;0.40;99.90;;;;;;4946253;29;20211;-85
2022/03/05 04:41:21;;;;;;;14.07;9.32;;;0.40;99.90;;;;;;4943864;29;20571;-85
2022/03/05 04:43:49;;;;;;;11.10;8.13;;;0.40;99.90;;;;;;4942998;29;20262;-84
2022/03/05 04:46:16;;;;;;;12.82;8.40;;;0.40;99.90;;;;;;4942660;29;20199;-86
2022/03/05 04:48:42;;;;;;;15.57;9.52;;;0.40;99.90;;;;;;4943704;29;20730;-83
2022/03/05 04:51:09;;;;;;;16.60;9.95;;;0.30;99.90;;;;;;4942697;29;20230;-85
2022/03/05 04:53:35;;;;;;;17.60;9.93;;;0.20;99.90;;;;;;4940706;29;20235;-84
2022/03/05 04:56:04;;;;;;;14.25;10.27;;;0.30;99.90;;;;;;4941749;29;20207;-84
2022/03/05 04:58:30;;;;;;;15.35;9.60;;;0.20;99.90;;;;;;4946374;29;20502;-84
2022/03/05 05:00:57;;;;;;;14.77;9.80;;;1.10;99.90;;;;;;4948286;29;20284;-85
2022/03/05 05:03:24;;;;;;;14.13;9.45;;;0.20;99.90;;;;;;4947944;29;20223;-84
2022/03/05 05:05:50;;;;;;;14.90;9.50;;;0.20;99.90;;;;;;4945975;29;20222;-84
2022/03/05 05:08:17;;;;;;;12.25;9.25;;;0.20;99.90;;;;;;4947249;29;20249;-84
2022/03/05 05:10:43;;;;;;;16.30;10.50;;;0.10;99.90;;;;;;4952292;29;20254;-84
2022/03/05 05:13:11;;;;;;;14.40;10.68;;;0.20;99.90;;;;;;4954029;29;20231;-85
2022/03/05 05:15:39;;;;;;;12.88;9.63;;;0.10;99.90;;;;;;4952519;29;20214;-85
2022/03/05 05:18:05;;;;;;;15.48;9.57;;;0.10;99.90;;;;;;4947930;29;20207;-85
2022/03/05 05:20:32;;;;;;;12.48;10.80;;;0.10;99.90;;;;;;4944297;29;20263;-85
2022/03/05 05:22:58;;;;;;;17.67;11.02;;;0.10;99.90;;;;;;4944428;29;20227;-85
2022/03/05 05:25:25;;;;;;;15.85;10.63;;;0.20;99.90;;;;;;4947184;29;20270;-85
2022/03/05 05:27:52;;;;;;;14.60;10.35;;;0.10;99.90;;;;;;4949931;29;20441;-85
2022/03/05 05:30:20;;;;;;;17.13;10.15;;;0.10;99.90;;;;;;4955517;29;20226;-85
2022/03/05 05:32:46;;;;;;;17.38;10.23;;;0.10;99.90;;;;;;4961739;29;20485;-85
2022/03/05 05:35:13;;;;;;;13.57;9.43;;;0.10;99.90;;;;;;4960615;29;20195;-84
2022/03/05 05:37:40;;;;;;;14.95;9.85;;;0.10;99.90;;;;;;4958117;29;20217;-85
2022/03/05 05:40:08;;;;;;;17.30;9.70;;;0.10;99.90;;;;;;4956515;29;20203;-85
2022/03/05 05:42:34;;;;;;;13.45;9.55;;;0.20;99.90;;;;;;4951413;29;20344;-85
2022/03/05 05:45:01;;;;;;;12.77;9.80;;;0.00;99.90;;;;;;4948488;29;20203;-85
2022/03/05 05:47:29;;;;;;;10.32;8.45;;;0.10;99.90;;;;;;4946343;29;20298;-85
2022/03/05 05:49:56;;;;;;;16.23;9.40;;;0.10;99.90;;;;;;4945244;29;20257;-85
2022/03/05 05:52:23;;;;;;;16.63;10.23;;;0.00;99.90;;;;;;4945120;29;20207;-85
2022/03/05 05:54:50;;;;;;;14.15;10.00;;;0.00;99.90;;;;;;4944443;29;20246;-85
2022/03/05 05:57:16;;;;;;;14.18;9.77;;;0.00;99.90;;;;;;4944463;29;20211;-85
2022/03/05 05:59:43;;;;;;;13.90;9.90;;;0.00;99.90;;;;;;4949586;29;20207;-84
2022/03/05 06:02:09;;;;;;;13.00;9.02;;;0.10;99.90;;;;;;4963021;28;20207;-83
2022/03/05 06:04:37;;;;;;;15.35;8.60;;;0.00;99.90;;;;;;4962577;28;20207;-83
2022/03/05 06:07:04;;;;;;;14.65;9.18;;;-0.10;99.90;;;;;;4962361;28;20206;-84
2022/03/05 06:09:31;;;;;;;17.10;9.48;;;-0.10;99.90;;;;;;4962698;28;20211;-83
2022/03/05 06:12:00;;;;;;;23.88;10.13;;;0.00;99.90;;;;;;4962943;28;20222;-85
2022/03/05 06:14:29;;;;;;;13.27;9.75;;;-0.10;99.90;;;;;;4963197;28;20235;-83
2022/03/05 06:16:55;;;;;;;14.85;10.05;;;0.00;99.90;;;;;;4962761;28;20179;-83
2022/03/05 06:19:22;;;;;;;16.10;10.02;;;0.00;99.90;;;;;;4962543;28;20203;-85
2022/03/05 06:21:50;;;;;;;16.80;10.23;;;0.00;99.90;;;;;;4958531;28;20678;-86
2022/03/05 06:24:16;;;;;;;13.82;8.93;;;0.00;99.90;;;;;;4951028;29;20238;-85
2022/03/05 06:26:43;;;;;;;17.85;11.00;;;0.00;99.90;;;;;;4947823;29;20218;-85
2022/03/05 06:29:10;;;;;;;16.13;10.63;;;0.00;99.90;;;;;;4947699;29;20615;-86
2022/03/05 06:31:37;;;;;;;16.73;10.48;;;0.10;99.90;;;;;;4945686;29;20412;-86
2022/03/05 06:34:03;;;;;;;12.05;9.00;;;0.00;99.90;;;;;;4946847;29;20227;-85
2022/03/05 06:36:30;;;;;;;13.15;9.27;;;0.10;99.90;;;;;;4944661;29;20657;-85
2022/03/05 06:38:59;;;;;;;14.52;9.93;;;0.10;99.90;;;;;;4945650;29;20731;-85
2022/03/05 06:41:25;;;;;;;17.92;11.30;;;0.10;99.90;;;;;;4947358;29;20203;-86
2022/03/05 06:43:54;;;;;;;10.43;8.70;;;0.00;99.90;;;;;;4947881;29;20301;-85
2022/03/05 06:46:21;;;;;;;14.38;10.05;;;0.10;99.90;;;;;;4945940;29;20211;-85
2022/03/05 06:48:47;;;;;;;18.58;10.00;;;0.40;99.90;;;;;;4945067;29;20592;-86
2022/03/05 06:51:14;;;;;;;12.23;9.93;;;0.20;99.90;;;;;;4944893;29;20227;-86
2022/03/05 06:53:41;;;;;;;19.42;10.38;;;0.20;99.90;;;;;;4945137;29;20672;-86
2022/03/05 06:56:09;;;;;;;15.10;9.82;;;0.20;99.90;;;;;;4946068;29;20207;-85
2022/03/05 06:58:35;;;;;;;14.18;9.68;;;0.20;99.90;;;;;;4943943;29;20741;-85
2022/03/05 07:01:02;;;;;;;13.90;10.40;;;0.20;99.90;;;;;;4952814;29;20199;-85
2022/03/05 07:03:31;;;;;;;13.43;10.00;;;0.20;99.90;;;;;;4953268;29;20227;-85
2022/03/05 07:05:58;;;;;;;15.55;9.57;;;0.50;99.90;;;;;;4953413;29;20230;-86
2022/03/05 07:08:25;;;;;;;17.63;10.68;;;0.30;99.90;;;;;;4961452;28;20190;-84
2022/03/05 07:10:51;;;;;;;16.85;10.88;;;0.40;99.90;;;;;;4961749;28;20217;-83
2022/03/05 07:13:29;;;;;;;23.45;10.90;;;0.30;99.90;;;;;;4961793;28;20247;-84
2022/03/05 07:15:56;;;;;;;13.85;9.77;;;0.40;99.90;;;;;;4961672;28;20179;-83
2022/03/05 07:18:23;;;;;;;15.75;11.15;;;0.20;99.90;;;;;;4959928;28;20195;-85
2022/03/05 07:20:49;;;;;;;14.60;10.80;;;0.40;99.90;;;;;;4959044;28;20207;-86
2022/03/05 07:23:16;;;;;;;16.48;11.60;;;0.20;99.90;;;;;;4951171;29;20222;-87
2022/03/05 07:25:43;;;;;;;11.63;8.95;;;0.30;99.90;;;;;;4945808;29;20685;-86
2022/03/05 07:28:12;;;;;;;14.88;10.25;;;0.40;99.90;;;;;;4945680;29;20215;-85
2022/03/05 07:30:40;;;;;;;18.17;9.90;;;0.40;99.90;;;;;;4946520;29;20226;-85
2022/03/05 07:33:07;;;;;;;12.88;10.35;;;0.50;99.90;;;;;;4943853;29;20227;-86
2022/03/05 07:35:34;;;;;;;12.77;9.93;;;0.50;99.90;;;;;;4943259;29;20211;-85
2022/03/05 07:38:00;;;;;;;12.15;10.27;;;0.60;99.90;;;;;;4942942;29;20254;-86
2022/03/05 07:40:27;;;;;;;12.88;9.95;;;0.60;99.90;;;;;;4944097;29;20207;-85
2022/03/05 07:42:54;;;;;;;16.38;10.80;;;0.60;99.90;;;;;;4952461;29;20235;-85
2022/03/05 07:45:21;;;;;;;18.02;11.52;;;0.70;99.90;;;;;;4951302;29;20206;-84
2022/03/05 07:47:49;;;;;;;16.83;11.05;;;0.70;93.60;;;;;;4953155;28;20207;-86
2022/03/05 07:50:16;;;;;;;12.38;10.32;;;0.80;51.60;;;;;;4947279;29;20210;-85
2022/03/05 07:52:42;;;;;;;16.05;10.80;;;1.20;42.00;;;;;;4944318;29;20203;-84
2022/03/05 07:55:10;;;;;;;14.93;11.05;;;0.90;14.20;;;;;;4970681;23;20251;-87
2022/03/05 07:57:36;;;;;;;18.10;11.10;;;1.90;39.00;;;;;;4950785;28;20690;-86
2022/03/05 08:00:05;;;;;;;15.25;11.07;;;1.20;31.10;;;;;;4943830;29;20207;-86
2022/03/05 08:02:32;;;;;;;18.77;10.13;;;1.00;1.00;;;;;;4945331;29;20207;-88
2022/03/05 08:05:00;;;;;;;22.67;11.35;;;1.00;1.00;;;;;;4944260;29;20262;-87
2022/03/05 08:07:27;;;;;;;12.98;10.10;;;;;;;;;;4944522;29;20242;-88
2022/03/05 08:09:55;;;;;;;16.80;9.75;;;1.20;1.00;;;;;;4945144;29;20210;-87
2022/03/05 08:12:21;;;;;;;13.93;9.70;;;1.30;1.00;;;;;;4944840;29;20227;-87
2022/03/05 08:14:48;;;;;;;17.45;10.15;;;1.30;1.00;;;;;;4944263;29;20733;-88
2022/03/05 08:17:15;;;;;;;14.82;11.23;;;1.30;1.00;;;;;;4944104;29;20203;-87
2022/03/05 08:19:43;;;;;;;12.15;9.63;;;1.40;1.00;;;;;;4946820;29;20219;-87
2022/03/05 08:22:14;;;;;;;14.77;10.38;;;1.20;1.00;;;;;;4944411;29;20301;-87
2022/03/05 08:24:41;;;;;;;15.02;11.48;;;1.40;1.00;;;;;;4940412;29;20230;-87
2022/03/05 08:27:07;;;;;;;14.57;9.88;;;;;;;;;;4939133;29;20215;-87
2022/03/05 08:29:34;;;;;;;16.13;10.30;;;1.60;1.00;;;;;;4940408;29;20207;-87
2022/03/05 08:32:01;;;;;;;11.63;9.93;;;1.70;1.00;;;;;;4947923;29;20218;-87
2022/03/05 08:34:29;;;;;;;17.35;9.52;;;1.60;1.00;;;;;;4948428;29;20231;-86
2022/03/05 08:36:55;;;;;;;19.45;11.48;;;1.80;1.00;;;;;;4946104;29;20579;-87
2022/03/05 08:39:23;;;;;;;14.70;10.88;;;1.70;1.00;;;;;;4948456;29;20218;-87
2022/03/05 08:41:50;;;;;;;14.13;10.13;;;1.70;1.00;;;;;;4948656;29;20203;-87
2022/03/05 08:44:17;;;;;;;14.52;9.35;;;2.00;1.00;;;;;;4950718;29;20286;-87
2022/03/05 08:46:46;;;;;;;16.17;11.05;;;1.90;1.00;;;;;;4956946;29;20282;-86
2022/03/05 08:49:13;;;;;;;15.63;10.93;;;1.90;1.00;;;;;;4958954;29;20197;-87
2022/03/05 08:51:41;;;;;;;14.52;9.88;;;2.10;1.00;;;;;;4957034;29;20230;-86
2022/03/05 08:54:09;;;;;;;11.45;9.13;;;2.10;99.90;;;;;;4951813;29;20238;-87
2022/03/05 08:56:37;;;;;;;21.73;10.15;;;2.00;99.90;;;;;;4950390;29;20269;-85
2022/03/05 08:59:03;;;;;;;16.00;11.20;;;2.10;99.90;;;;;;4951078;29;20207;-86
2022/03/05 09:01:36;;;;;;;16.65;11.75;;;2.20;99.90;;;;;;4952175;29;20210;-86
2022/03/05 09:04:03;;;;;;;13.30;10.25;;;2.10;99.90;;;;;;4951301;29;20227;-86
2022/03/05 09:06:30;;;;;;;17.10;10.32;;;2.70;99.90;;;;;;4954009;29;20207;-85
2022/03/05 09:08:56;;;;;;;14.65;10.10;;;2.40;99.90;;;;;;4961283;28;20219;-86
2022/03/05 09:11:23;;;;;;;14.25;9.90;;;2.40;52.70;;;;;;4955121;29;20225;-85
2022/03/05 09:13:52;;;;;;;16.35;9.85;;;2.40;95.20;;;;;;4956992;28;20325;-86
2022/03/05 09:16:18;;;;;;;12.25;10.00;;;2.60;99.90;;;;;;4961738;29;20223;-86
2022/03/05 09:18:45;;;;;;;19.40;12.48;;;2.20;43.30;;;;;;4956707;28;20207;-86
2022/03/05 09:21:12;;;;;;;11.85;9.02;;;2.70;1.00;;;;;;4951027;29;20669;-85
2022/03/05 09:23:39;;;;;;;10.55;9.50;;;2.80;1.00;;;;;;4947383;29;20227;-86
2022/03/05 09:26:06;;;;;;;13.80;10.45;;;2.90;1.00;;;;;;4948172;29;20206;-86
2022/03/05 09:28:32;;;;;;;10.98;8.95;;;2.90;1.00;;;;;;4950523;29;20215;-88
2022/03/05 09:31:00;;;;;;;25.70;12.75;;;2.90;1.00;;;;;;4949911;29;20286;-86
2022/03/05 09:33:27;;;;;;;18.52;10.00;;;3.10;1.00;;;;;;4950377;29;20227;-86
2022/03/05 09:35:54;;;;;;;10.68;8.32;;;3.10;99.90;;;;;;4949394;29;20211;-86
2022/03/05 09:38:20;;;;;;;15.48;9.50;;;3.10;99.90;;;;;;4951246;29;20211;-86
2022/03/05 09:40:47;;;;;;;11.50;9.80;;;3.10;99.90;;;;;;4949600;29;20207;-86
2022/03/05 09:43:14;;;;;;;11.23;8.95;;;3.30;99.90;;;;;;4951682;29;20226;-86
2022/03/05 09:45:44;;;;;;;9.70;8.70;;;3.30;93.30;;;;;;4949749;29;20207;-86
2022/03/05 09:48:15;;;;;;;10.13;8.98;;;3.70;1.00;;;;;;4948893;29;20497;-86
2022/03/05 09:50:42;;;;;;;13.13;8.50;;;3.90;99.90;;;;;;4949558;29;20191;-87
2022/03/05 09:53:09;;;;;;;15.65;9.85;;;3.80;99.90;;;;;;4950119;29;20207;-86
2022/03/05 09:55:35;;;;;;;12.18;9.57;;;3.50;99.90;;;;;;4950653;29;20266;-86
2022/03/05 09:58:02;;;;;;;12.32;8.27;;;3.50;1.00;;;;;;4961595;28;20278;-84
2022/03/05 10:00:31;;;;;;;11.10;9.15;;;3.60;1.00;;;;;;4962494;28;20187;-84
2022/03/05 10:02:59;;;;;;;15.73;10.05;;;3.40;1.00;;;;;;4962201;28;20254;-83
2022/03/05 10:05:28;;;;;;;11.50;9.93;;;3.50;1.00;;;;;;4962073;28;20206;-84
2022/03/05 10:08:07;;;;;;;12.18;9.32;;;3.60;1.00;;;;;;4960103;28;20215;-85
2022/03/05 10:10:42;;;;;;;11.88;8.90;;;3.50;99.90;;;;;;4944255;29;20202;-85
2022/03/05 10:13:20;;;;;;;17.05;11.35;;;3.70;1.00;;;;;;4947053;29;20191;-86
2022/03/05 10:15:47;;;;;;;17.02;9.35;;;3.60;99.90;;;;;;4946526;29;20266;-86
2022/03/05 10:18:37;;;;;;;13.52;10.18;;;3.80;1.00;;;;;;4950107;28;20203;-84
2022/03/05 10:21:07;;;;;;;12.20;9.25;;;3.80;99.90;;;;;;4947180;29;20685;-86
2022/03/05 10:23:36;;;;;;;17.33;9.50;;;3.80;1.00;;;;;;4946438;29;20230;-86
2022/03/05 10:26:04;;;;;;;10.80;9.10;;;3.80;99.90;;;;;;4949306;29;20214;-86
2022/03/05 10:28:32;;;;;;;12.70;9.30;;;3.80;99.90;;;;;;4947651;29;20214;-86
2022/03/05 10:31:07;;;;;;;14.73;11.13;;;4.00;99.90;;;;;;4946535;29;20215;-86
2022/03/05 10:33:35;;;;;;;34.90;24.25;;;4.00;56.70;;;;;;4947836;29;20280;-86
2022/03/05 10:36:03;;;;;;;14.30;10.55;;;4.00;15.90;;;;;;4946754;29;20686;-86
2022/03/05 10:38:45;;;;;;;10.43;9.35;;;4.10;99.90;;;;;;4948348;29;20230;-86
2022/03/05 10:41:13;;;;;;;11.35;9.05;;;4.30;1.00;;;;;;4948024;29;20187;-86
2022/03/05 10:43:40;;;;;;;11.88;9.40;;;4.10;99.90;;;;;;4947512;29;20226;-86
2022/03/05 10:46:06;;;;;;;13.45;9.32;;;4.00;99.90;;;;;;4947147;29;20696;-86
2022/03/05 10:48:34;;;;;;;12.23;8.57;;;4.00;99.90;;;;;;4948598;29;20214;-86
2022/03/05 10:51:03;;;;;;;9.65;8.65;;;4.10;99.90;;;;;;4950750;29;20212;-86
2022/03/05 10:53:42;;;;;;;12.00;9.20;;;4.20;99.90;;;;;;4950598;29;20266;-86
2022/03/05 10:56:31;;;;;;;11.32;10.32;;;4.00;1.00;;;;;;4949289;29;20187;-86
2022/03/05 10:59:03;;;;;;;11.95;9.52;;;3.90;1.00;;;;;;4947189;29;20246;-86
2022/03/05 11:01:30;;;;;;;12.77;9.65;;;3.90;12.70;;;;;;4944642;29;20226;-85
2022/03/05 11:03:58;;;;;;;13.32;9.65;;;4.00;99.90;;;;;;4945951;29;20242;-86
2022/03/05 11:06:25;;;;;;;11.48;9.38;;;4.10;99.90;;;;;;4946654;29;20234;-87
2022/03/05 11:08:52;;;;;;;11.73;9.40;;;4.20;28.20;;;;;;4946317;29;20215;-86
2022/03/05 11:11:21;;;;;;;9.68;8.65;;;4.30;1.00;;;;;;4946284;29;20558;-86
2022/03/05 11:13:49;;;;;;;11.38;9.27;;;4.60;99.90;;;;;;4951966;29;20227;-86
2022/03/05 11:16:16;;;;;;;11.20;9.38;;;4.50;1.00;;;;;;4947358;29;20211;-87
2022/03/05 11:18:43;;;;;;;9.18;8.18;;;4.70;1.00;;;;;;4944657;29;20444;-86
2022/03/05 11:21:10;;;;;;;8.90;8.05;;;4.90;1.00;;;;;;4945504;29;20230;-85
2022/03/05 11:23:39;;;;;;;7.90;7.15;;;5.10;1.00;;;;;;4943955;29;20302;-86
2022/03/05 11:26:08;;;;;;;9.60;8.32;;;4.80;1.00;;;;;;4943471;29;20207;-85
2022/03/05 11:28:36;;;;;;;15.98;7.55;;;4.80;1.00;;;;;;4943601;29;20222;-86
2022/03/05 11:31:08;;;;;;;9.75;8.27;;;5.00;1.00;;;;;;4944096;29;20207;-86
2022/03/05 11:33:48;;;;;;;9.73;7.45;;;5.40;99.90;;;;;;4947339;29;20227;-86
2022/03/05 11:36:26;;;;;;;9.90;8.00;;;5.40;99.90;;;;;;4944987;29;20631;-86
2022/03/05 11:39:07;;;;;;;13.57;9.50;;;5.30;99.90;;;;;;4954245;29;20210;-85
2022/03/05 11:41:47;;;;;;;23.23;17.38;;;5.00;95.70;;;;;;4956075;28;20172;-85
2022/03/05 11:44:15;;;;;;;13.98;9.23;;;4.90;40.70;;;;;;4952470;29;20238;-85
2022/03/05 11:46:45;;;;;;;9.07;8.07;;;4.90;1.00;;;;;;4949480;29;20203;-86
2022/03/05 11:49:14;;;;;;;8.55;7.70;;;4.60;1.00;;;;;;4948798;29;20199;-86
2022/03/05 11:51:53;;;;;;;11.07;8.70;;;4.90;99.90;;;;;;4952938;29;20227;-86
2022/03/05 11:54:20;;;;;;;8.70;7.90;;;4.80;1.00;;;;;;4951544;29;20258;-87
2022/03/05 11:57:03;;;;;;;11.70;9.77;;;4.90;1.00;;;;;;4951769;29;20207;-87
2022/03/05 11:59:30;;;;;;;9.35;8.48;;;5.00;1.00;;;;;;4950521;29;20191;-86
2022/03/05 12:01:59;;;;;;;11.90;8.70;;;4.90;93.00;;;;;;4953319;29;20211;-87
2022/03/05 12:04:28;;;;;;;11.55;8.68;;;4.70;1.00;;;;;;4952786;29;20227;-86
2022/03/05 12:07:00;;;;;;;10.15;9.00;;;4.80;31.70;;;;;;4952884;28;20226;-84
2022/03/05 12:09:42;;;;;;;8.40;7.65;;;4.90;16.20;;;;;;4951779;29;20214;-87
2022/03/05 12:12:10;;;;;;;8.65;7.25;;;5.00;43.50;;;;;;4949123;29;20211;-87
2022/03/05 12:15:10;;;;;;;11.57;7.97;;;5.20;99.90;;;;;;4950048;29;20231;-86
2022/03/05 12:17:52;;;;;;;9.32;8.38;;;5.20;99.90;;;;;;4946224;29;20214;-87
2022/03/05 12:20:26;;;;;;;11.23;9.15;;;5.10;99.90;;;;;;4950789;29;20199;-86
2022/03/05 12:23:00;;;;;;;7.68;7.03;;;5.10;99.90;;;;;;4947518;29;20262;-86
2022/03/05 12:25:28;;;;;;;9.02;7.70;;;5.10;99.90;;;;;;4947087;29;20192;-86
2022/03/05 12:27:56;;;;;;;11.43;8.13;;;5.20;1.00;;;;;;4947367;29;20202;-87
2022/03/05 12:30:25;;;;;;;8.10;7.30;;;5.40;1.00;;;;;;4950967;29;20210;-86
2022/03/05 12:32:55;;;;;;;9.38;8.35;;;5.30;99.90;;;;;;4946850;29;20230;-86
2022/03/05 12:35:22;;;;;;;9.02;6.75;;;5.10;99.90;;;;;;4954712;28;20577;-84
2022/03/05 12:37:53;;;;;;;10.93;7.93;;;5.10;99.90;;;;;;4959366;28;20187;-85
2022/03/05 12:40:20;;;;;;;8.77;7.05;;;4.90;99.90;;;;;;4959337;28;20226;-86
2022/03/05 12:42:49;;;;;;;7.90;7.10;;;5.00;99.90;;;;;;4959157;28;20195;-86
2022/03/05 12:45:19;;;;;;;8.13;7.22;;;5.10;99.90;;;;;;4953877;28;20203;-86
2022/03/05 12:47:47;;;;;;;7.57;6.28;;;5.10;99.90;;;;;;4949528;29;20227;-86
2022/03/05 12:50:29;;;;;;;8.45;6.40;;;5.20;99.90;;;;;;4944626;29;20207;-86
2022/03/05 12:53:04;;;;;;;7.00;6.30;;;5.30;99.90;;;;;;4947346;29;20235;-86
2022/03/05 12:55:34;;;;;;;8.93;5.82;;;6.00;99.90;;;;;;4947167;29;20215;-86
2022/03/05 12:58:07;;;;;;;7.10;6.40;;;5.70;99.90;;;;;;4946909;29;20203;-86
2022/03/05 13:00:34;;;;;;;6.65;5.85;;;5.90;99.90;;;;;;4947816;29;20234;-86
2022/03/05 13:03:01;;;;;;;6.72;6.13;;;5.70;99.90;;;;;;4951899;29;20211;-86
2022/03/05 13:05:29;;;;;;;8.40;7.25;;;5.70;99.90;;;;;;4947298;29;20214;-86
2022/03/05 13:07:55;;;;;;;7.25;6.55;;;5.50;99.90;;;;;;4946421;29;20235;-86
2022/03/05 13:10:22;;;;;;;7.18;5.70;;;5.70;99.90;;;;;;4946804;29;20211;-86
2022/03/05 13:12:52;;;;;;;5.78;5.22;;;6.00;99.90;;;;;;4950862;29;20365;-85